createdAt,value
2016-12-01T00:00:32.825Z,3.96
2016-12-01T00:01:32.988Z,3.96
2016-12-01T00:02:32.759Z,3.95
2016-12-01T00:03:33.476Z,3.96
2016-12-01T00:04:33.769Z,3.93
2016-12-01T00:05:33.538Z,3.96
2016-12-01T00:06:33.109Z,3.99
2016-12-01T00:07:32.852Z,3.9
2016-12-01T00:08:32.897Z,3.99
2016-12-01T00:09:33.154Z,3.93
2016-12-01T00:10:32.886Z,3.93
2016-12-01T00:11:32.991Z,3.99
2016-12-01T00:12:32.823Z,3.9
2016-12-01T00:13:32.909Z,3.95
2016-12-01T00:14:32.883Z,3.92
2016-12-01T00:15:33.102Z,3.98
2016-12-01T00:16:33.042Z,4
2016-12-01T00:17:32.916Z,3.92
2016-12-01T00:18:32.850Z,3.96
2016-12-01T00:19:32.943Z,3.9
2016-12-01T00:20:33.036Z,3.93
2016-12-01T00:21:32.865Z,3.92
2016-12-01T00:22:33.501Z,3.9
2016-12-01T00:23:32.866Z,3.88
2016-12-01T00:24:32.980Z,3.88
2016-12-01T00:25:32.951Z,3.88
2016-12-01T00:26:32.889Z,3.89
2016-12-01T00:27:33.148Z,3.92
2016-12-01T00:28:33.335Z,3.95
2016-12-01T00:29:33.091Z,3.98
2016-12-01T00:30:32.964Z,3.95
2016-12-01T00:31:32.849Z,3.99
2016-12-01T00:32:32.902Z,3.96
2016-12-01T00:33:33.117Z,3.95
2016-12-01T00:34:32.867Z,3.96
2016-12-01T00:35:32.980Z,3.95
2016-12-01T00:36:32.887Z,3.96
2016-12-01T00:37:32.962Z,4
2016-12-01T00:38:34.567Z,3.98
2016-12-01T00:39:32.725Z,3.92
2016-12-01T00:40:32.835Z,3.96
2016-12-01T00:41:32.983Z,3.93
2016-12-01T00:42:32.801Z,3.98
2016-12-01T00:43:33.041Z,4
2016-12-01T00:44:32.912Z,3.92
2016-12-01T00:45:32.941Z,3.96
2016-12-01T00:46:32.893Z,3.92
2016-12-01T00:47:32.830Z,3.95
2016-12-01T00:48:32.793Z,4.02
2016-12-01T00:49:32.872Z,3.98
2016-12-01T00:50:32.891Z,3.93
2016-12-01T00:51:32.928Z,4.04
2016-12-01T00:52:32.951Z,3.95
2016-12-01T00:53:32.940Z,3.95
2016-12-01T00:54:32.902Z,4.04
2016-12-01T00:55:32.851Z,3.93
2016-12-01T00:56:32.788Z,4.04
2016-12-01T00:57:32.779Z,3.93
2016-12-01T00:58:32.822Z,4.07
2016-12-01T00:59:32.904Z,4.07
2016-12-01T01:00:32.891Z,4.06
2016-12-01T01:01:32.867Z,3.98
2016-12-01T01:02:32.825Z,4.04
2016-12-01T01:03:32.932Z,4.02
2016-12-01T01:04:32.814Z,4.06
2016-12-01T01:05:32.891Z,4.07
2016-12-01T01:06:32.868Z,4.1
2016-12-01T01:07:32.979Z,4.06
2016-12-01T01:08:32.921Z,4
2016-12-01T01:09:32.873Z,4.04
2016-12-01T01:10:32.919Z,3.99
2016-12-01T01:11:32.784Z,4.1
2016-12-01T01:12:32.867Z,4.07
2016-12-01T01:13:32.844Z,4.1
2016-12-01T01:14:32.938Z,4.08
2016-12-01T01:15:32.978Z,4.11
2016-12-01T01:16:32.874Z,4.04
2016-12-01T01:17:32.904Z,4.1
2016-12-01T01:18:32.864Z,4.11
2016-12-01T01:19:32.935Z,4.08
2016-12-01T01:20:32.974Z,4.11
2016-12-01T01:21:32.958Z,4.13
2016-12-01T01:22:32.897Z,4.14
2016-12-01T01:23:32.864Z,4.17
2016-12-01T01:24:32.865Z,4.17
2016-12-01T01:25:32.956Z,4.18
2016-12-01T01:26:33.012Z,4.13
2016-12-01T01:27:33.095Z,4.18
2016-12-01T01:28:33.134Z,4.1
2016-12-01T01:29:32.972Z,4.1
2016-12-01T01:30:32.934Z,4.16
2016-12-01T01:31:33.092Z,4.2
2016-12-01T01:32:32.913Z,4.11
2016-12-01T01:33:32.967Z,4.11
2016-12-01T01:34:32.932Z,4.13
2016-12-01T01:35:33.658Z,4.17
2016-12-01T01:36:32.885Z,4.21
2016-12-01T01:37:32.967Z,4.13
2016-12-01T01:38:33.067Z,4.13
2016-12-01T01:39:32.996Z,4.18
2016-12-01T01:40:33.004Z,4.14
2016-12-01T01:41:33.142Z,4.13
2016-12-01T01:42:34.326Z,4.24
2016-12-01T01:43:32.921Z,4.18
2016-12-01T01:44:32.889Z,4.18
2016-12-01T01:45:33.084Z,4.17
2016-12-01T01:46:32.952Z,4.16
2016-12-01T01:47:33.192Z,4.17
2016-12-01T01:48:32.930Z,4.25
2016-12-01T01:49:32.948Z,4.21
2016-12-01T01:50:32.943Z,4.2
2016-12-01T01:51:32.928Z,4.17
2016-12-01T01:52:32.955Z,4.18
2016-12-01T01:53:33.047Z,4.21
2016-12-01T01:54:32.955Z,4.28
2016-12-01T01:55:33.045Z,4.29
2016-12-01T01:56:32.917Z,4.16
2016-12-01T01:57:32.949Z,4.25
2016-12-01T01:58:32.983Z,4.29
2016-12-01T01:59:33.170Z,4.2
2016-12-01T02:00:33.060Z,4.31
2016-12-01T02:01:32.937Z,4.2
2016-12-01T02:02:32.919Z,4.26
2016-12-01T02:03:33.025Z,4.28
2016-12-01T02:04:33.007Z,4.24
2016-12-01T02:05:32.996Z,4.29
2016-12-01T02:06:32.905Z,4.29
2016-12-01T02:07:32.990Z,4.18
2016-12-01T02:08:32.915Z,4.26
2016-12-01T02:09:32.990Z,4.28
2016-12-01T02:10:32.941Z,4.2
2016-12-01T02:11:33.030Z,4.24
2016-12-01T02:12:34.234Z,4.25
2016-12-01T02:13:32.968Z,4.21
2016-12-01T02:14:32.898Z,4.24
2016-12-01T02:15:33.066Z,4.25
2016-12-01T02:16:32.868Z,4.21
2016-12-01T02:17:33.069Z,4.26
2016-12-01T02:18:32.959Z,4.28
2016-12-01T02:19:33.056Z,4.25
2016-12-01T02:20:33.111Z,4.28
2016-12-01T02:21:32.971Z,4.21
2016-12-01T02:22:32.947Z,4.26
2016-12-01T02:23:33.066Z,4.26
2016-12-01T02:24:32.909Z,4.26
2016-12-01T02:25:33.045Z,4.29
2016-12-01T02:26:32.913Z,4.34
2016-12-01T02:27:33.049Z,4.21
2016-12-01T02:28:33.025Z,4.21
2016-12-01T02:29:33.175Z,4.26
2016-12-01T02:30:33.086Z,4.26
2016-12-01T02:31:33.335Z,4.26
2016-12-01T02:32:33.177Z,4.25
2016-12-01T02:33:33.080Z,4.31
2016-12-01T02:34:32.931Z,4.25
2016-12-01T02:35:33.152Z,4.24
2016-12-01T02:36:33.001Z,4.24
2016-12-01T02:37:33.095Z,4.25
2016-12-01T02:38:32.861Z,4.26
2016-12-01T02:39:33.083Z,4.26
2016-12-01T02:40:33.072Z,4.24
2016-12-01T02:41:33.152Z,4.25
2016-12-01T02:42:32.832Z,4.21
2016-12-01T02:43:33.003Z,4.24
2016-12-01T02:44:32.880Z,4.31
2016-12-01T02:45:33.031Z,4.26
2016-12-01T02:46:33.022Z,4.26
2016-12-01T02:47:32.935Z,4.28
2016-12-01T02:48:32.913Z,4.26
2016-12-01T02:49:32.963Z,4.26
2016-12-01T02:50:32.976Z,4.28
2016-12-01T02:51:32.894Z,4.31
2016-12-01T02:52:32.989Z,4.36
2016-12-01T02:53:33.117Z,4.26
2016-12-01T02:54:33.094Z,4.36
2016-12-01T02:55:32.948Z,4.28
2016-12-01T02:56:33.006Z,4.25
2016-12-01T02:57:34.302Z,4.25
2016-12-01T02:58:32.901Z,4.36
2016-12-01T02:59:32.993Z,4.36
2016-12-01T03:00:33.038Z,4.25
2016-12-01T03:01:33.001Z,4.31
2016-12-01T03:02:32.962Z,4.39
2016-12-01T03:03:32.993Z,4.43
2016-12-01T03:04:33.045Z,4.38
2016-12-01T03:05:33.055Z,4.28
2016-12-01T03:06:32.892Z,4.38
2016-12-01T03:07:32.972Z,4.32
2016-12-01T03:08:32.942Z,4.38
2016-12-01T03:09:32.972Z,4.36
2016-12-01T03:10:33.060Z,4.36
2016-12-01T03:11:33.012Z,4.39
2016-12-01T03:12:32.929Z,4.36
2016-12-01T03:13:32.986Z,4.35
2016-12-01T03:14:33.018Z,4.38
2016-12-01T03:15:33.091Z,4.35
2016-12-01T03:16:32.918Z,4.35
2016-12-01T03:17:33.033Z,4.35
2016-12-01T03:18:32.992Z,4.36
2016-12-01T03:19:33.016Z,4.36
2016-12-01T03:20:33.138Z,4.34
2016-12-01T03:21:32.832Z,4.36
2016-12-01T03:22:33.138Z,4.34
2016-12-01T03:23:33.013Z,4.35
2016-12-01T03:24:32.954Z,4.42
2016-12-01T03:25:33.162Z,4.35
2016-12-01T03:26:33.004Z,4.38
2016-12-01T03:27:33.088Z,4.35
2016-12-01T03:28:33.059Z,4.34
2016-12-01T03:29:32.938Z,4.39
2016-12-01T03:30:33.103Z,4.34
2016-12-01T03:31:32.901Z,4.29
2016-12-01T03:32:32.994Z,4.35
2016-12-01T03:33:33.055Z,4.38
2016-12-01T03:34:33.023Z,4.31
2016-12-01T03:35:33.164Z,4.34
2016-12-01T03:36:32.994Z,4.43
2016-12-01T03:37:33.108Z,4.34
2016-12-01T03:38:33.112Z,4.35
2016-12-01T03:39:33.095Z,4.39
2016-12-01T03:40:33.126Z,4.38
2016-12-01T03:41:33.041Z,4.35
2016-12-01T03:42:33.073Z,4.38
2016-12-01T03:43:33.241Z,4.46
2016-12-01T03:44:33.138Z,4.34
2016-12-01T03:45:33.086Z,4.44
2016-12-01T03:46:33.079Z,4.36
2016-12-01T03:47:33.090Z,4.43
2016-12-01T03:48:32.964Z,4.39
2016-12-01T03:49:44.388Z,4.46
2016-12-01T03:50:33.161Z,4.38
2016-12-01T03:51:32.932Z,4.38
2016-12-01T03:52:32.987Z,4.43
2016-12-01T03:53:32.839Z,4.42
2016-12-01T03:54:33.151Z,4.39
2016-12-01T03:55:32.933Z,4.36
2016-12-01T03:56:33.173Z,4.38
2016-12-01T03:57:33.007Z,4.39
2016-12-01T03:58:33.044Z,4.36
2016-12-01T03:59:33.174Z,4.34
2016-12-01T04:00:33.114Z,4.34
2016-12-01T04:01:33.053Z,4.44
2016-12-01T04:02:32.962Z,4.44
2016-12-01T04:03:33.071Z,4.38
2016-12-01T04:04:33.020Z,4.35
2016-12-01T04:05:33.008Z,4.35
2016-12-01T04:06:33.103Z,4.38
2016-12-01T04:07:33.143Z,4.35
2016-12-01T04:08:33.090Z,4.36
2016-12-01T04:09:33.193Z,4.36
2016-12-01T04:10:33.151Z,4.47
2016-12-01T04:11:33.181Z,4.38
2016-12-01T04:12:33.214Z,4.42
2016-12-01T04:13:33.040Z,4.32
2016-12-01T04:14:33.060Z,4.38
2016-12-01T04:15:33.239Z,4.44
2016-12-01T04:16:33.092Z,4.32
2016-12-01T04:17:33.160Z,4.38
2016-12-01T04:18:33.052Z,4.32
2016-12-01T04:19:33.099Z,4.38
2016-12-01T04:20:33.028Z,4.36
2016-12-01T04:21:33.143Z,4.39
2016-12-01T04:22:33.119Z,4.39
2016-12-01T04:23:32.980Z,4.38
2016-12-01T04:24:33.036Z,4.43
2016-12-01T04:25:33.260Z,4.32
2016-12-01T04:26:32.987Z,4.32
2016-12-01T04:27:33.142Z,4.36
2016-12-01T04:28:33.068Z,4.36
2016-12-01T04:29:32.929Z,4.36
2016-12-01T04:30:33.127Z,4.32
2016-12-01T04:31:33.028Z,4.38
2016-12-01T04:32:33.091Z,4.39
2016-12-01T04:33:33.118Z,4.34
2016-12-01T04:34:33.062Z,4.35
2016-12-01T04:35:33.040Z,4.36
2016-12-01T04:36:33.084Z,4.32
2016-12-01T04:37:33.180Z,4.35
2016-12-01T04:38:33.118Z,4.34
2016-12-01T04:39:33.051Z,4.35
2016-12-01T04:40:33.170Z,4.34
2016-12-01T04:41:33.188Z,4.35
2016-12-01T04:42:33.153Z,4.38
2016-12-01T04:43:33.086Z,4.29
2016-12-01T04:44:33.073Z,4.36
2016-12-01T04:45:33.043Z,4.34
2016-12-01T04:46:33.198Z,4.38
2016-12-01T04:47:33.225Z,4.36
2016-12-01T04:48:33.068Z,4.36
2016-12-01T04:49:33.178Z,4.43
2016-12-01T04:50:33.169Z,4.38
2016-12-01T04:51:33.137Z,4.35
2016-12-01T04:52:32.998Z,4.35
2016-12-01T04:53:33.085Z,4.38
2016-12-01T04:54:33.036Z,4.25
2016-12-01T04:55:33.041Z,4.35
2016-12-01T04:56:33.023Z,4.39
2016-12-01T04:57:33.047Z,4.36
2016-12-01T04:58:33.159Z,4.38
2016-12-01T04:59:33.175Z,4.38
2016-12-01T05:00:33.019Z,4.25
2016-12-01T05:01:33.095Z,4.32
2016-12-01T05:02:33.017Z,4.35
2016-12-01T05:03:33.143Z,4.35
2016-12-01T05:04:33.017Z,4.38
2016-12-01T05:05:33.073Z,4.35
2016-12-01T05:06:33.087Z,4.36
2016-12-01T05:07:33.160Z,4.28
2016-12-01T05:08:33.183Z,4.36
2016-12-01T05:09:33.147Z,4.38
2016-12-01T05:10:33.176Z,4.36
2016-12-01T05:11:33.453Z,4.35
2016-12-01T05:12:33.226Z,4.38
2016-12-01T05:13:33.129Z,4.35
2016-12-01T05:14:33.128Z,4.28
2016-12-01T05:15:33.449Z,4.26
2016-12-01T05:16:33.223Z,4.28
2016-12-01T05:17:33.109Z,4.36
2016-12-01T05:18:33.145Z,4.39
2016-12-01T05:19:33.216Z,4.34
2016-12-01T05:20:36.046Z,4.32
2016-12-01T05:21:33.254Z,4.35
2016-12-01T05:22:33.475Z,4.36
2016-12-01T05:23:33.283Z,4.36
2016-12-01T05:24:33.218Z,4.36
2016-12-01T05:25:33.303Z,4.35
2016-12-01T05:26:34.478Z,4.38
2016-12-01T05:27:33.293Z,4.38
2016-12-01T05:28:33.113Z,4.42
2016-12-01T05:29:33.163Z,4.34
2016-12-01T05:30:33.109Z,4.38
2016-12-01T05:31:33.310Z,4.39
2016-12-01T05:32:33.105Z,4.47
2016-12-01T05:33:33.447Z,4.35
2016-12-01T05:34:33.174Z,4.43
2016-12-01T05:35:33.107Z,4.44
2016-12-01T05:36:33.096Z,4.35
2016-12-01T05:37:33.432Z,4.38
2016-12-01T05:38:33.159Z,4.44
2016-12-01T05:39:33.251Z,4.42
2016-12-01T05:40:33.280Z,4.44
2016-12-01T05:41:33.275Z,4.44
2016-12-01T05:42:33.196Z,4.49
2016-12-01T05:43:33.235Z,4.42
2016-12-01T05:44:33.145Z,4.43
2016-12-01T05:45:33.227Z,4.35
2016-12-01T05:46:33.283Z,4.49
2016-12-01T05:47:33.314Z,4.44
2016-12-01T05:48:33.137Z,4.49
2016-12-01T05:49:33.256Z,4.5
2016-12-01T05:50:33.191Z,4.47
2016-12-01T05:51:33.484Z,4.35
2016-12-01T05:52:33.325Z,4.43
2016-12-01T05:53:33.319Z,4.34
2016-12-01T05:54:33.282Z,4.38
2016-12-01T05:55:33.371Z,4.38
2016-12-01T05:56:33.301Z,4.38
2016-12-01T05:57:33.180Z,4.47
2016-12-01T05:58:33.365Z,4.49
2016-12-01T05:59:33.458Z,4.38
2016-12-01T06:00:33.164Z,4.38
2016-12-01T06:01:33.275Z,4.39
2016-12-01T06:02:33.246Z,4.35
2016-12-01T06:03:33.138Z,4.46
2016-12-01T06:04:33.123Z,4.34
2016-12-01T06:05:33.148Z,4.43
2016-12-01T06:06:33.195Z,4.36
2016-12-01T06:07:33.198Z,4.46
2016-12-01T06:08:33.174Z,4.39
2016-12-01T06:09:33.428Z,4.46
2016-12-01T06:10:33.335Z,4.43
2016-12-01T06:11:33.257Z,4.47
2016-12-01T06:12:33.345Z,4.43
2016-12-01T06:13:33.495Z,4.44
2016-12-01T06:14:33.275Z,4.51
2016-12-01T06:15:33.277Z,4.44
2016-12-01T06:16:33.484Z,4.49
2016-12-01T06:17:33.307Z,4.44
2016-12-01T06:18:33.288Z,4.5
2016-12-01T06:19:33.248Z,4.49
2016-12-01T06:20:33.205Z,4.49
2016-12-01T06:21:33.284Z,4.53
2016-12-01T06:22:33.188Z,4.47
2016-12-01T06:23:33.393Z,4.51
2016-12-01T06:24:33.208Z,4.54
2016-12-01T06:25:33.253Z,4.53
2016-12-01T06:26:33.161Z,4.61
2016-12-01T06:27:33.497Z,4.59
2016-12-01T06:28:33.213Z,4.44
2016-12-01T06:29:33.292Z,4.5
2016-12-01T06:30:33.173Z,4.57
2016-12-01T06:31:33.251Z,4.46
2016-12-01T06:32:33.181Z,4.47
2016-12-01T06:33:33.300Z,4.47
2016-12-01T06:34:33.153Z,4.5
2016-12-01T06:35:33.478Z,4.49
2016-12-01T06:36:33.401Z,4.61
2016-12-01T06:37:35.546Z,4.46
2016-12-01T06:38:33.817Z,4.59
2016-12-01T06:39:34.279Z,4.64
2016-12-01T06:40:33.231Z,4.54
2016-12-01T06:41:33.383Z,4.49
2016-12-01T06:42:33.279Z,4.56
2016-12-01T06:43:33.323Z,4.53
2016-12-01T06:44:33.343Z,4.49
2016-12-01T06:45:33.279Z,4.61
2016-12-01T06:46:33.128Z,4.49
2016-12-01T06:47:33.221Z,4.44
2016-12-01T06:48:33.212Z,4.54
2016-12-01T06:49:33.353Z,4.51
2016-12-01T06:50:33.167Z,4.47
2016-12-01T06:51:33.249Z,4.56
2016-12-01T06:52:33.279Z,4.59
2016-12-01T06:53:33.360Z,4.62
2016-12-01T06:54:33.272Z,4.44
2016-12-01T06:55:33.285Z,4.46
2016-12-01T06:56:33.312Z,4.53
2016-12-01T06:57:33.331Z,4.47
2016-12-01T06:58:34.931Z,4.43
2016-12-01T06:59:33.299Z,4.57
2016-12-01T07:00:33.250Z,4.49
2016-12-01T07:01:33.312Z,4.39
2016-12-01T07:02:33.233Z,4.44
2016-12-01T07:03:33.282Z,4.56
2016-12-01T07:04:33.183Z,4.49
2016-12-01T07:05:33.245Z,4.42
2016-12-01T07:06:33.233Z,4.43
2016-12-01T07:07:33.310Z,4.47
2016-12-01T07:08:33.250Z,4.46
2016-12-01T07:09:33.494Z,4.54
2016-12-01T07:10:33.223Z,4.57
2016-12-01T07:11:33.252Z,4.5
2016-12-01T07:12:33.218Z,4.46
2016-12-01T07:13:33.211Z,4.51
2016-12-01T07:14:33.207Z,4.57
2016-12-01T07:15:33.193Z,4.43
2016-12-01T07:16:33.229Z,4.44
2016-12-01T07:17:33.304Z,4.46
2016-12-01T07:18:33.741Z,4.61
2016-12-01T07:19:33.432Z,4.62
2016-12-01T07:20:33.223Z,4.49
2016-12-01T07:21:33.511Z,4.49
2016-12-01T07:22:33.265Z,4.61
2016-12-01T07:23:34.515Z,4.43
2016-12-01T07:24:33.209Z,4.64
2016-12-01T07:25:33.284Z,4.57
2016-12-01T07:26:33.194Z,4.44
2016-12-01T07:27:33.210Z,4.47
2016-12-01T07:28:33.363Z,4.53
2016-12-01T07:29:33.233Z,4.49
2016-12-01T07:30:33.351Z,4.53
2016-12-01T07:31:33.213Z,4.51
2016-12-01T07:32:33.350Z,4.51
2016-12-01T07:33:33.708Z,4.47
2016-12-01T07:34:33.391Z,4.53
2016-12-01T07:35:33.263Z,4.5
2016-12-01T07:36:33.545Z,4.51
2016-12-01T07:37:33.169Z,4.54
2016-12-01T07:38:34.031Z,4.53
2016-12-01T07:39:33.523Z,4.44
2016-12-01T07:40:33.420Z,4.5
2016-12-01T07:41:33.640Z,4.53
2016-12-01T07:42:33.263Z,4.5
2016-12-01T07:43:33.321Z,4.47
2016-12-01T07:44:33.270Z,4.46
2016-12-01T07:45:33.371Z,4.54
2016-12-01T07:48:40.363Z,4.49
2016-12-01T07:48:51.991Z,4.54
2016-12-01T07:49:52.107Z,4.49
2016-12-01T07:50:52.116Z,4.5
2016-12-01T07:51:52.025Z,4.61
2016-12-01T07:52:51.943Z,4.61
2016-12-01T07:53:52.119Z,4.62
2016-12-01T07:54:52.098Z,4.57
2016-12-01T07:55:52.040Z,4.62
2016-12-01T07:56:52.010Z,4.62
2016-12-01T07:57:52.222Z,4.64
2016-12-01T07:58:52.074Z,4.59
2016-12-01T07:59:52.213Z,4.64
2016-12-01T08:00:52.121Z,4.65
2016-12-01T08:01:52.208Z,4.59
2016-12-01T08:02:52.039Z,4.62
2016-12-01T08:03:52.020Z,4.64
2016-12-01T08:04:52.132Z,4.68
2016-12-01T08:05:52.279Z,4.71
2016-12-01T08:06:52.267Z,4.65
2016-12-01T08:07:52.199Z,4.68
2016-12-01T08:08:52.105Z,4.62
2016-12-01T08:09:52.172Z,4.65
2016-12-01T08:10:52.107Z,4.69
2016-12-01T08:11:52.222Z,4.75
2016-12-01T08:12:52.118Z,4.68
2016-12-01T08:13:52.623Z,4.77
2016-12-01T08:14:52.166Z,4.77
2016-12-01T08:15:52.505Z,4.8
2016-12-01T08:16:52.262Z,4.69
2016-12-01T08:17:52.272Z,4.77
2016-12-01T08:18:52.303Z,4.74
2016-12-01T08:19:52.137Z,4.75
2016-12-01T08:20:52.142Z,4.84
2016-12-01T08:21:52.371Z,4.8
2016-12-01T08:22:52.128Z,4.68
2016-12-01T08:23:52.226Z,4.79
2016-12-01T08:24:52.126Z,4.68
2016-12-01T08:25:52.070Z,4.72
2016-12-01T08:26:52.732Z,4.74
2016-12-01T08:27:51.977Z,4.83
2016-12-01T08:28:52.122Z,4.87
2016-12-01T08:29:52.116Z,4.86
2016-12-01T08:30:52.091Z,4.8
2016-12-01T08:31:52.155Z,4.74
2016-12-01T08:32:52.022Z,4.71
2016-12-01T08:33:52.126Z,4.84
2016-12-01T08:34:52.052Z,4.83
2016-12-01T08:35:52.156Z,4.72
2016-12-01T08:36:52.148Z,4.8
2016-12-01T08:37:52.072Z,4.84
2016-12-01T08:38:52.091Z,4.83
2016-12-01T08:39:52.196Z,4.79
2016-12-01T08:40:52.927Z,4.8
2016-12-01T08:41:51.929Z,4.83
2016-12-01T08:42:52.059Z,4.75
2016-12-01T08:43:52.168Z,4.88
2016-12-01T08:44:52.051Z,4.96
2016-12-01T08:45:52.188Z,4.88
2016-12-01T08:46:52.086Z,4.8
2016-12-01T08:47:52.123Z,4.88
2016-12-01T08:48:52.075Z,4.96
2016-12-01T08:49:52.178Z,4.97
2016-12-01T08:50:52.122Z,5.02
2016-12-01T08:51:52.134Z,5.01
2016-12-01T08:52:52.008Z,5.04
2016-12-01T08:53:52.212Z,5.08
2016-12-01T08:54:52.110Z,5.06
2016-12-01T08:55:52.366Z,5.06
2016-12-01T08:56:52.052Z,5.17
2016-12-01T08:57:52.107Z,5.15
2016-12-01T08:58:52.153Z,5.19
2016-12-01T08:59:52.181Z,5.2
2016-12-01T09:00:52.351Z,5.14
2016-12-01T09:01:52.216Z,5.15
2016-12-01T09:02:52.426Z,5.17
2016-12-01T09:03:52.230Z,5.19
2016-12-01T09:04:52.060Z,5.27
2016-12-01T09:05:52.292Z,5.22
2016-12-01T09:06:52.183Z,5.33
2016-12-01T09:07:52.189Z,5.37
2016-12-01T09:08:52.059Z,5.24
2016-12-01T09:09:52.154Z,5.26
2016-12-01T09:10:52.073Z,5.4
2016-12-01T09:11:52.017Z,5.41
2016-12-01T09:12:52.096Z,5.42
2016-12-01T09:13:52.222Z,5.4
2016-12-01T09:14:52.111Z,5.48
2016-12-01T09:15:52.338Z,5.41
2016-12-01T09:16:52.130Z,5.52
2016-12-01T09:17:52.161Z,5.44
2016-12-01T09:18:51.995Z,5.65
2016-12-01T09:19:52.120Z,5.59
2016-12-01T09:20:52.139Z,5.48
2016-12-01T09:21:52.150Z,5.66
2016-12-01T09:22:52.127Z,5.62
2016-12-01T09:23:52.104Z,5.69
2016-12-01T09:24:52.161Z,5.73
2016-12-01T09:25:52.341Z,5.78
2016-12-01T09:26:52.036Z,5.78
2016-12-01T09:27:52.202Z,5.96
2016-12-01T09:28:52.184Z,5.83
2016-12-01T09:29:52.390Z,5.88
2016-12-01T09:30:52.131Z,5.85
2016-12-01T09:31:52.417Z,5.8
2016-12-01T09:32:52.131Z,5.92
2016-12-01T09:33:52.105Z,5.87
2016-12-01T09:34:52.117Z,6.06
2016-12-01T09:35:52.200Z,6.03
2016-12-01T09:36:52.050Z,6.03
2016-12-01T09:37:52.189Z,6.06
2016-12-01T09:38:52.241Z,6.16
2016-12-01T09:39:52.170Z,6.21
2016-12-01T09:40:52.167Z,6.14
2016-12-01T09:41:52.152Z,6.2
2016-12-01T09:42:52.228Z,6.3
2016-12-01T09:43:52.997Z,6.42
2016-12-01T09:44:52.089Z,6.28
2016-12-01T09:45:52.201Z,6.33
2016-12-01T09:46:52.108Z,6.48
2016-12-01T09:47:52.022Z,6.38
2016-12-01T09:48:52.081Z,6.35
2016-12-01T09:49:52.041Z,6.33
2016-12-01T09:50:52.073Z,6.48
2016-12-01T09:51:52.275Z,6.28
2016-12-01T09:52:52.358Z,6.48
2016-12-01T09:53:52.151Z,6.4
2016-12-01T09:54:52.251Z,6.3
2016-12-01T09:55:52.339Z,6.48
2016-12-01T09:56:52.039Z,6.58
2016-12-01T09:57:52.114Z,6.69
2016-12-01T09:58:52.178Z,6.71
2016-12-01T09:59:52.136Z,6.81
2016-12-01T10:00:52.253Z,6.71
2016-12-01T10:01:52.183Z,6.61
2016-12-01T10:02:52.135Z,6.61
2016-12-01T10:03:52.054Z,6.64
2016-12-01T10:04:52.192Z,6.68
2016-12-01T10:05:52.299Z,6.81
2016-12-01T10:06:52.107Z,6.63
2016-12-01T10:07:52.179Z,6.51
2016-12-01T10:08:52.159Z,6.6
2016-12-01T10:09:52.355Z,6.71
2016-12-01T10:10:52.137Z,6.81
2016-12-01T10:11:52.155Z,6.72
2016-12-01T10:12:52.241Z,6.81
2016-12-01T10:13:52.056Z,6.79
2016-12-01T10:14:52.205Z,6.79
2016-12-01T10:15:52.219Z,6.81
2016-12-01T10:16:52.229Z,6.71
2016-12-01T10:17:52.334Z,6.86
2016-12-01T10:18:52.239Z,6.89
2016-12-01T10:19:52.156Z,7
2016-12-01T10:20:52.237Z,6.83
2016-12-01T10:21:52.197Z,6.87
2016-12-01T10:22:52.241Z,6.89
2016-12-01T10:23:52.261Z,6.94
2016-12-01T10:24:52.200Z,6.86
2016-12-01T10:25:52.294Z,6.86
2016-12-01T10:26:52.193Z,6.99
2016-12-01T10:27:52.447Z,7.01
2016-12-01T10:28:52.321Z,6.97
2016-12-01T10:29:52.112Z,6.91
2016-12-01T10:30:52.178Z,6.93
2016-12-01T10:31:51.998Z,6.89
2016-12-01T10:32:52.152Z,6.82
2016-12-01T10:33:52.235Z,6.91
2016-12-01T10:34:52.240Z,6.91
2016-12-01T10:35:52.242Z,6.89
2016-12-01T10:36:52.157Z,6.99
2016-12-01T10:37:52.123Z,7.01
2016-12-01T10:38:52.080Z,6.94
2016-12-01T10:39:52.211Z,6.94
2016-12-01T10:40:52.237Z,7.08
2016-12-01T10:41:52.144Z,7.04
2016-12-01T10:42:52.201Z,6.9
2016-12-01T10:43:52.225Z,6.9
2016-12-01T10:44:52.167Z,6.87
2016-12-01T10:45:52.327Z,6.89
2016-12-01T10:46:52.248Z,7
2016-12-01T10:47:52.298Z,6.76
2016-12-01T10:48:52.241Z,6.69
2016-12-01T10:49:52.320Z,6.71
2016-12-01T10:50:52.288Z,6.71
2016-12-01T10:51:52.314Z,6.72
2016-12-01T10:52:52.122Z,6.71
2016-12-01T10:53:52.117Z,6.73
2016-12-01T10:54:52.199Z,6.72
2016-12-01T10:55:52.321Z,6.72
2016-12-01T10:56:52.070Z,6.73
2016-12-01T10:57:52.247Z,6.61
2016-12-01T10:58:52.179Z,6.65
2016-12-01T10:59:52.149Z,6.63
2016-12-01T11:00:52.181Z,6.5
2016-12-01T11:01:52.159Z,6.55
2016-12-01T11:02:52.188Z,6.5
2016-12-01T11:03:52.361Z,6.65
2016-12-01T11:04:52.121Z,6.64
2016-12-01T11:05:52.231Z,6.54
2016-12-01T11:06:52.253Z,6.46
2016-12-01T11:07:52.452Z,6.54
2016-12-01T11:08:52.252Z,6.61
2016-12-01T11:09:52.281Z,6.53
2016-12-01T11:10:52.338Z,6.51
2016-12-01T11:11:52.387Z,6.57
2016-12-01T11:12:52.271Z,6.64
2016-12-01T11:13:52.473Z,6.6
2016-12-01T11:14:52.246Z,6.64
2016-12-01T11:15:52.222Z,6.6
2016-12-01T11:16:52.261Z,6.58
2016-12-01T11:17:52.448Z,6.6
2016-12-01T11:18:52.234Z,6.61
2016-12-01T11:19:52.230Z,6.6
2016-12-01T11:20:52.317Z,6.64
2016-12-01T11:21:52.371Z,6.79
2016-12-01T11:22:52.249Z,6.64
2016-12-01T11:23:52.196Z,6.61
2016-12-01T11:24:52.525Z,6.65
2016-12-01T11:25:52.310Z,6.68
2016-12-01T11:26:52.159Z,6.65
2016-12-01T11:27:52.292Z,6.79
2016-12-01T11:28:52.270Z,6.71
2016-12-01T11:29:52.387Z,6.78
2016-12-01T11:30:52.815Z,6.75
2016-12-01T11:31:52.336Z,6.72
2016-12-01T11:32:52.375Z,6.78
2016-12-01T11:33:52.273Z,6.89
2016-12-01T11:34:52.216Z,6.75
2016-12-01T11:35:52.405Z,6.78
2016-12-01T11:36:52.314Z,6.64
2016-12-01T11:37:52.421Z,6.64
2016-12-01T11:38:52.333Z,6.72
2016-12-01T11:39:52.444Z,6.61
2016-12-01T11:40:52.332Z,6.63
2016-12-01T11:41:52.363Z,6.55
2016-12-01T11:42:52.280Z,6.57
2016-12-01T11:43:52.352Z,6.54
2016-12-01T11:44:52.240Z,6.46
2016-12-01T11:45:52.384Z,6.51
2016-12-01T11:46:52.318Z,6.53
2016-12-01T11:47:52.308Z,6.5
2016-12-01T11:48:52.338Z,6.51
2016-12-01T11:49:52.322Z,6.46
2016-12-01T11:50:52.279Z,6.48
2016-12-01T11:51:52.260Z,6.53
2016-12-01T11:52:52.792Z,6.48
2016-12-01T11:53:52.223Z,6.51
2016-12-01T11:54:52.198Z,6.48
2016-12-01T11:55:52.358Z,6.46
2016-12-01T11:56:52.254Z,6.53
2016-12-01T11:57:52.431Z,6.5
2016-12-01T11:58:52.281Z,6.57
2016-12-01T11:59:52.300Z,6.71
2016-12-01T12:00:52.231Z,6.48
2016-12-01T12:01:52.251Z,6.58
2016-12-01T12:02:52.183Z,6.48
2016-12-01T12:03:52.451Z,6.53
2016-12-01T12:04:52.263Z,6.46
2016-12-01T12:05:52.283Z,6.5
2016-12-01T12:06:52.140Z,6.5
2016-12-01T12:07:52.436Z,6.55
2016-12-01T12:08:52.281Z,6.64
2016-12-01T12:09:52.328Z,6.55
2016-12-01T12:10:52.354Z,6.55
2016-12-01T12:11:52.370Z,6.46
2016-12-01T12:12:52.481Z,6.54
2016-12-01T12:13:52.512Z,6.46
2016-12-01T12:14:52.403Z,6.54
2016-12-01T12:15:52.289Z,6.46
2016-12-01T12:16:52.254Z,6.46
2016-12-01T12:17:52.390Z,6.43
2016-12-01T12:18:52.342Z,6.57
2016-12-01T12:19:52.365Z,6.51
2016-12-01T12:20:52.369Z,6.48
2016-12-01T12:21:52.944Z,6.46
2016-12-01T12:22:52.354Z,6.53
2016-12-01T12:23:52.410Z,6.53
2016-12-01T12:24:52.351Z,6.6
2016-12-01T12:25:52.217Z,6.55
2016-12-01T12:26:52.312Z,6.55
2016-12-01T12:27:52.460Z,6.48
2016-12-01T12:28:52.430Z,6.61
2016-12-01T12:29:52.436Z,6.55
2016-12-01T12:30:52.406Z,6.63
2016-12-01T12:31:52.431Z,6.64
2016-12-01T12:32:52.349Z,6.71
2016-12-01T12:33:52.412Z,6.54
2016-12-01T12:34:52.285Z,6.58
2016-12-01T12:35:52.457Z,6.68
2016-12-01T12:36:52.389Z,6.63
2016-12-01T12:37:52.496Z,6.6
2016-12-01T12:38:52.470Z,6.65
2016-12-01T12:39:52.427Z,6.6
2016-12-01T12:40:52.469Z,6.57
2016-12-01T12:41:52.644Z,6.68
2016-12-01T12:42:52.314Z,6.63
2016-12-01T12:43:52.390Z,6.61
2016-12-01T12:44:52.434Z,6.58
2016-12-01T12:45:52.449Z,6.65
2016-12-01T12:46:52.472Z,6.64
2016-12-01T12:47:52.435Z,6.57
2016-12-01T12:48:52.812Z,6.5
2016-12-01T12:49:52.520Z,6.51
2016-12-01T12:50:52.503Z,6.64
2016-12-01T12:51:52.489Z,6.61
2016-12-01T12:52:52.368Z,6.64
2016-12-01T12:53:52.511Z,6.58
2016-12-01T12:54:52.516Z,6.55
2016-12-01T12:55:52.447Z,6.51
2016-12-01T12:56:52.379Z,6.68
2016-12-01T12:57:52.409Z,6.69
2016-12-01T12:58:52.347Z,6.58
2016-12-01T12:59:52.381Z,6.63
2016-12-01T13:00:52.464Z,6.69
2016-12-01T13:01:52.695Z,6.48
2016-12-01T13:02:52.804Z,6.58
2016-12-01T13:03:52.444Z,6.53
2016-12-01T13:04:52.373Z,6.51
2016-12-01T13:05:52.238Z,6.55
2016-12-01T13:06:52.221Z,6.43
2016-12-01T13:07:52.142Z,6.48
2016-12-01T13:08:52.121Z,6.48
2016-12-01T13:09:52.208Z,6.55
2016-12-01T13:10:52.214Z,6.48
2016-12-01T13:11:52.222Z,6.58
2016-12-01T13:12:52.223Z,6.57
2016-12-01T13:13:52.159Z,6.64
2016-12-01T13:14:52.232Z,6.6
2016-12-01T13:15:52.384Z,6.57
2016-12-01T13:16:52.262Z,6.6
2016-12-01T13:17:52.163Z,6.53
2016-12-01T13:18:52.211Z,6.68
2016-12-01T13:19:52.344Z,6.61
2016-12-01T13:20:52.233Z,6.53
2016-12-01T13:21:52.281Z,6.6
2016-12-01T13:22:52.202Z,6.63